^^
Meteo Knjazevac Station Historical Data
Daily Summary for June 3, 2021 Units:  Metric    English   Both
Daily Weekly Monthly Yearly Custom
  High: Low: Average:
Temperature: 22.1 °C 1.1 °C 11 °C
Dew Point: 10.9 °C -0.3 °C 5.9 °C
Humidity: 96% 49% 73%
Wind Speed: 9.7km/h 0km/h 3.1km/h
Wind Gust: 19.3km/h - -
Wind- - SSW
Pressure: 1026.3 hPa 1022.9 hPa -
Precipitation: 0 mm    
Historical Graphs
 
 
Tabular Data for June 3, 2021
Time Temperature Dew Point Pressure Wind Wind Speed Wind Gust Humidity Rainfall Rate (Hourly) solar Conditions
00:00 6.5 °C 4 °C 1025.3 hPa SSE 1.6 km/h 4.8 km/h 84% 0 mm 0 W/m2
00:10 6.4 °C 3.9 °C 1025.3 hPa West 1.6 km/h 3.2 km/h 84% 0 mm 0 W/m2
00:20 6.3 °C 3.8 °C 1025.3 hPa WNW 1.6 km/h 6.4 km/h 84% 0 mm 0 W/m2
00:30 6.1 °C 3.6 °C 1025.3 hPa Calm   3.2 km/h 84% 0 mm 0 W/m2
00:40 6 °C 3.5 °C 1025.3 hPa Calm   3.2 km/h 84% 0 mm 0 W/m2
00:50 5.8 °C 3.3 °C 1025.3 hPa Calm   3.2 km/h 84% 0 mm 0 W/m2
01:00 5.6 °C 3.1 °C 1025.3 hPa NW 1.6 km/h 4.8 km/h 84% 0 mm 0 W/m2
01:10 5.4 °C 3.1 °C 1025.3 hPa West 1.6 km/h 6.4 km/h 85% 0 mm 0 W/m2
01:20 5.3 °C 3.2 °C 1025.3 hPa Calm   3.2 km/h 86% 0 mm 0 W/m2
01:30 5 °C 2.5 °C 1025.3 hPa Calm   1.6 km/h 84% 0 mm 0 W/m2
01:40 4.7 °C 2.2 °C 1025.3 hPa Calm   3.2 km/h 84% 0 mm 0 W/m2
01:50 4.5 °C 2.3 °C 1025.3 hPa NW 3.2 km/h 6.4 km/h 86% 0 mm 0 W/m2
02:00 4.4 °C 2.3 °C 1025.3 hPa NW 1.6 km/h 4.8 km/h 86% 0 mm 0 W/m2
02:10 4.3 °C 2.2 °C 1025.3 hPa Calm   3.2 km/h 86% 0 mm 0 W/m2
02:20 4.2 °C 2.1 °C 1025.3 hPa West 1.6 km/h 3.2 km/h 86% 0 mm 0 W/m2
02:30 3.9 °C 1.8 °C 1025.6 hPa Calm   3.2 km/h 86% 0 mm 0 W/m2
02:40 3.8 °C 2 °C 1025.3 hPa Calm   3.2 km/h 88% 0 mm 0 W/m2
02:50 3.8 °C 2.2 °C 1025.3 hPa North 1.6 km/h 4.8 km/h 89% 0 mm 0 W/m2
03:00 3.8 °C 2.2 °C 1025.3 hPa Calm   3.2 km/h 89% 0 mm 0 W/m2
03:10 3.7 °C 1.9 °C 1025.6 hPa Calm   3.2 km/h 88% 0 mm 0 W/m2
03:20 3.6 °C 1.9 °C 1025.3 hPa Calm   4.8 km/h 89% 0 mm 0 W/m2
03:30 3.5 °C 1.7 °C 1025.6 hPa Calm   3.2 km/h 88% 0 mm 0 W/m2
03:40 3.2 °C 1.4 °C 1025.3 hPa Calm   1.6 km/h 88% 0 mm 0 W/m2
03:50 3 °C 1.2 °C 1025.3 hPa Calm     88% 0 mm 0 W/m2
04:00 2.9 °C 1.1 °C 1025.3 hPa NE 1.6 km/h 3.2 km/h 88% 0 mm 0 W/m2
04:10 2.7 °C 1.1 °C 1025.3 hPa Calm   3.2 km/h 89% 0 mm 0 W/m2
04:20 2.7 °C 1.1 °C 1025.3 hPa Calm   1.6 km/h 89% 0 mm 0 W/m2
04:30 2.6 °C 0.9 °C 1025.3 hPa Calm   3.2 km/h 89% 0 mm 0 W/m2
04:40 2.4 °C 0.8 °C 1025.3 hPa Calm   3.2 km/h 89% 0 mm 0 W/m2
04:50 2.3 °C 0.5 °C 1025.3 hPa NW 3.2 km/h 4.8 km/h 88% 0 mm 0 W/m2
05:00 2.1 °C 0.5 °C 1025.3 hPa Calm   4.8 km/h 89% 0 mm 0 W/m2
05:10 2.1 °C 0.5 °C 1025.3 hPa Calm   3.2 km/h 89% 0 mm 0 W/m2
05:20 1.9 °C 0.3 °C 1025.3 hPa Calm   4.8 km/h 89% 0 mm 0 W/m2
05:30 1.8 °C 0.2 °C 1025.6 hPa WNW 1.6 km/h 4.8 km/h 89% 0 mm 0 W/m2
05:40 1.7 °C 0.2 °C 1025.3 hPa Calm   3.2 km/h 90% 0 mm 0 W/m2
05:50 1.7 °C 0.2 °C 1025.6 hPa NNW 1.6 km/h 3.2 km/h 90% 0 mm 0 W/m2
06:00 1.5 °C 0.1 °C 1025.6 hPa Calm   3.2 km/h 90% 0 mm 0 W/m2
06:10 1.4 °C -0.1 °C 1025.6 hPa NW 1.6 km/h 3.2 km/h 90% 0 mm 0 W/m2
06:20 1.3 °C -0.2 °C 1025.6 hPa NW 1.6 km/h 3.2 km/h 90% 0 mm 0 W/m2
06:30 1.4 °C 0.4 °C 1026 hPa Calm   4.8 km/h 93% 0 mm 4 W/m2
06:40 1.5 °C 0.5 °C 1026 hPa Calm   3.2 km/h 93% 0 mm 10 W/m2
06:50 1.4 °C -0.1 °C 1026 hPa Calm   3.2 km/h 90% 0 mm 19 W/m2
07:00 1.2 °C -0.3 °C 1026 hPa Calm   3.2 km/h 90% 0 mm 29 W/m2
07:10 1.1 °C -0.3 °C 1026 hPa NW 1.6 km/h 3.2 km/h 90% 0 mm 37 W/m2
07:20 1.1 °C -0.2 °C 1026 hPa WNW 3.2 km/h 6.4 km/h 91% 0 mm 80 W/m2
07:30 1.1 °C -0.2 °C 1026.3 hPa Calm   3.2 km/h 91% 0 mm 103 W/m2
07:40 1.2 °C 0.2 °C 1026.3 hPa WNW 1.6 km/h 3.2 km/h 93% 0 mm 132 W/m2
07:50 1.4 °C 0.6 °C 1026 hPa Calm   3.2 km/h 94% 0 mm 157 W/m2
08:00 1.8 °C 1.1 °C 1026.3 hPa Calm   3.2 km/h 95% 0 mm 187 W/m2
08:10 2.1 °C 1.4 °C 1026.3 hPa Calm   3.2 km/h 95% 0 mm 79 W/m2
08:20 2.6 °C 2.1 °C 1026.3 hPa Calm   3.2 km/h 96% 0 mm 179 W/m2
08:30 3.6 °C 3.1 °C 1026.3 hPa WSW 1.6 km/h 4.8 km/h 96% 0 mm 275 W/m2
08:40 4.7 °C 3.8 °C 1026.3 hPa SW 1.6 km/h 3.2 km/h 94% 0 mm 309 W/m2
08:50 5.7 °C 4.7 °C 1026.3 hPa WSW 1.6 km/h 3.2 km/h 93% 0 mm 328 W/m2
09:00 6.7 °C 5.2 °C 1026.3 hPa South 3.2 km/h 4.8 km/h 90% 0 mm 368 W/m2
09:10 7.5 °C 5.3 °C 1026.3 hPa ENE 4.8 km/h 16.1 km/h 86% 0 mm 400 W/m2
09:20 8.3 °C 5.9 °C 1026.3 hPa NE 4.8 km/h 16.1 km/h 85% 0 mm 425 W/m2
09:30 9.1 °C 6.4 °C 1026.3 hPa NNE 3.2 km/h 14.5 km/h 83% 0 mm 450 W/m2
09:40 9.7 °C 6.6 °C 1026.3 hPa NE 8 km/h 12.9 km/h 81% 0 mm 473 W/m2
09:50 10.3 °C 6.8 °C 1026.3 hPa NNE 4.8 km/h 12.9 km/h 79% 0 mm 485 W/m2
10:00 10.9 °C 7.2 °C 1026.3 hPa NNW 1.6 km/h 8 km/h 78% 0 mm 99 W/m2
10:10 11.4 °C 7.5 °C 1026.3 hPa NE 4.8 km/h 11.3 km/h 77% 0 mm 536 W/m2
10:20 11.9 °C 7.6 °C 1026.3 hPa NNE 1.6 km/h 11.3 km/h 75% 0 mm 555 W/m2
10:30 12.6 °C 7.9 °C 1026 hPa NNE 3.2 km/h 11.3 km/h 73% 0 mm 572 W/m2
10:40 13.2 °C 8.3 °C 1026 hPa North 3.2 km/h 9.7 km/h 72% 0 mm 588 W/m2
10:50 13.8 °C 8.2 °C 1026 hPa NNE 1.6 km/h 9.7 km/h 69% 0 mm 603 W/m2
11:00 14.4 °C 8.6 °C 1026 hPa NE 8 km/h 9.7 km/h 68% 0 mm 616 W/m2
11:10 14.9 °C 8.8 °C 1026 hPa NE 1.6 km/h 12.9 km/h 67% 0 mm 628 W/m2
11:20 15.5 °C 8.9 °C 1025.6 hPa NNE 4.8 km/h 12.9 km/h 65% 0 mm 638 W/m2
11:30 16.2 °C 9.4 °C 1025.3 hPa NNE 4.8 km/h 12.9 km/h 64% 0 mm 646 W/m2
11:40 16.6 °C 9.6 °C 1025.3 hPa NE 4.8 km/h 12.9 km/h 63% 0 mm 316 W/m2
11:50 17.2 °C 9.9 °C 1025.3 hPa NE 8 km/h 16.1 km/h 62% 0 mm 176 W/m2
12:00 17.7 °C 9.8 °C 1024.9 hPa NE 4.8 km/h 12.9 km/h 60% 0 mm 619 W/m2
12:10 18.2 °C 9.8 °C 1024.9 hPa NE 4.8 km/h 17.7 km/h 58% 0 mm 664 W/m2
12:20 18.6 °C 10.2 °C 1024.6 hPa North 4.8 km/h 11.3 km/h 58% 0 mm 665 W/m2
12:30 19.1 °C 10.7 °C 1024.6 hPa NNE 8 km/h 12.9 km/h 58% 0 mm 663 W/m2
12:40 19.6 °C 10.3 °C 1024.3 hPa NE 1.6 km/h 19.3 km/h 55% 0 mm 661 W/m2
12:50 19.9 °C 10.6 °C 1024.3 hPa NNE 9.7 km/h 16.1 km/h 55% 0 mm 656 W/m2
13:00 20.4 °C 10.8 °C 1024.3 hPa North 4.8 km/h 12.9 km/h 54% 0 mm 650 W/m2
13:10 20.7 °C 10.8 °C 1023.9 hPa North 9.7 km/h 16.1 km/h 53% 0 mm 642 W/m2
13:20 20.9 °C 10.7 °C 1023.9 hPa North 3.2 km/h 14.5 km/h 52% 0 mm 633 W/m2
13:30 21.2 °C 10.9 °C 1023.9 hPa NNE 9.7 km/h 19.3 km/h 52% 0 mm 614 W/m2
13:40 21.4 °C 10.6 °C 1023.6 hPa North 9.7 km/h 17.7 km/h 50% 0 mm 610 W/m2
13:50 21.5 °C 10.6 °C 1023.6 hPa NNE 8 km/h 16.1 km/h 50% 0 mm 597 W/m2
14:00 21.7 °C 10.8 °C 1023.2 hPa North 8 km/h 17.7 km/h 50% 0 mm 581 W/m2
14:10 21.8 °C 10.6 °C 1023.2 hPa North 3.2 km/h 19.3 km/h 49% 0 mm 565 W/m2
14:20 21.7 °C 10.5 °C 1023.2 hPa North 4.8 km/h 19.3 km/h 49% 0 mm 547 W/m2
14:30 21.8 °C 10.6 °C 1023.2 hPa North 9.7 km/h 19.3 km/h 49% 0 mm 527 W/m2
14:40 21.9 °C 10.7 °C 1023.2 hPa North 3.2 km/h 16.1 km/h 49% 0 mm 507 W/m2
14:50 22 °C 10.8 °C 1023.2 hPa North 4.8 km/h 14.5 km/h 49% 0 mm 485 W/m2
15:00 22.1 °C 10.9 °C 1022.9 hPa North 9.7 km/h 16.1 km/h 49% 0 mm 462 W/m2
15:10 22.1 °C 10.9 °C 1023.2 hPa NNE 3.2 km/h 17.7 km/h 49% 0 mm 438 W/m2
15:20 22.1 °C 10.9 °C 1022.9 hPa North 8 km/h 17.7 km/h 49% 0 mm 414 W/m2
15:30 22 °C 10.8 °C 1022.9 hPa North 4.8 km/h 17.7 km/h 49% 0 mm 388 W/m2
15:40 21.9 °C 10.7 °C 1022.9 hPa NNE 8 km/h 16.1 km/h 49% 0 mm 362 W/m2
15:50 21.9 °C 10.7 °C 1022.9 hPa North 9.7 km/h 19.3 km/h 49% 0 mm 335 W/m2
16:00 21.7 °C 10.5 °C 1022.9 hPa North 9.7 km/h 19.3 km/h 49% 0 mm 307 W/m2
16:10 21.5 °C 10.3 °C 1022.9 hPa North 8 km/h 17.7 km/h 49% 0 mm 279 W/m2
16:20 21.3 °C 10.2 °C 1022.9 hPa North 8 km/h 19.3 km/h 49% 0 mm 251 W/m2
16:30 21.1 °C 9.9 °C 1022.9 hPa North 4.8 km/h 19.3 km/h 49% 0 mm 222 W/m2
16:40 20.9 °C 10.1 °C 1022.9 hPa North 8 km/h 14.5 km/h 50% 0 mm 194 W/m2
16:50 20.6 °C 9.8 °C 1022.9 hPa NNW 8 km/h 14.5 km/h 50% 0 mm 163 W/m2
17:00 20.3 °C 9.6 °C 1022.9 hPa NNW 8 km/h 12.9 km/h 50% 0 mm 132 W/m2
17:10 20.1 °C 9.9 °C 1022.9 hPa North 9.7 km/h 16.1 km/h 52% 0 mm 105 W/m2
17:20 19.9 °C 9.7 °C 1022.9 hPa North 9.7 km/h 14.5 km/h 52% 0 mm 80 W/m2
17:30 19.6 °C 9.8 °C 1022.9 hPa North 8 km/h 16.1 km/h 53% 0 mm 57 W/m2
17:40 19.3 °C 9.5 °C 1022.9 hPa North 8 km/h 16.1 km/h 53% 0 mm 37 W/m2
17:50 18.9 °C 9.4 °C 1022.9 hPa NNW 3.2 km/h 16.1 km/h 54% 0 mm 20 W/m2
18:00 18.6 °C 9.1 °C 1023.2 hPa NNW 8 km/h 14.5 km/h 54% 0 mm 4 W/m2
18:10 18.1 °C 8.9 °C 1023.2 hPa NNW 4.8 km/h 12.9 km/h 55% 0 mm 0 W/m2
18:20 17.8 °C 9.1 °C 1023.2 hPa NNW 4.8 km/h 12.9 km/h 57% 0 mm 0 W/m2
18:30 17.4 °C 8.8 °C 1023.2 hPa NNW 4.8 km/h 9.7 km/h 57% 0 mm 0 W/m2
18:40 16.9 °C 8.7 °C 1023.6 hPa NNW 3.2 km/h 11.3 km/h 58% 0 mm 0 W/m2
18:50 16.7 °C 8.4 °C 1023.6 hPa North 1.6 km/h 11.3 km/h 58% 0 mm 0 W/m2
19:00 16.3 °C 8.3 °C 1023.6 hPa SW 1.6 km/h 4.8 km/h 59% 0 mm 0 W/m2
19:10 15.8 °C 8 °C 1023.6 hPa Calm   3.2 km/h 60% 0 mm 0 W/m2
19:20 15.2 °C 8.2 °C 1023.6 hPa SSE 3.2 km/h 6.4 km/h 63% 0 mm 0 W/m2
19:30 14.8 °C 8 °C 1023.6 hPa South 1.6 km/h 3.2 km/h 64% 0 mm 0 W/m2
19:40 14.3 °C 8 °C 1023.6 hPa WSW 1.6 km/h 3.2 km/h 66% 0 mm 0 W/m2
19:50 13.8 °C 7.8 °C 1023.9 hPa WSW 1.6 km/h 3.2 km/h 67% 0 mm 0 W/m2
20:00 13.4 °C 7.6 °C 1023.9 hPa SW 1.6 km/h 3.2 km/h 68% 0 mm 0 W/m2
20:10 13 °C 7.4 °C 1023.9 hPa SW 1.6 km/h 3.2 km/h 69% 0 mm 0 W/m2
20:20 12.6 °C 7.2 °C 1024.3 hPa SW 1.6 km/h 4.8 km/h 70% 0 mm 0 W/m2
20:30 12.2 °C 7.3 °C 1024.3 hPa WSW 1.6 km/h 3.2 km/h 72% 0 mm 0 W/m2
20:40 11.9 °C 7 °C 1024.3 hPa SW 3.2 km/h 4.8 km/h 72% 0 mm 0 W/m2
20:50 11.5 °C 6.8 °C 1024.3 hPa SW 3.2 km/h 4.8 km/h 73% 0 mm 0 W/m2
21:00 11.2 °C 6.7 °C 1024.3 hPa West 1.6 km/h 4.8 km/h 74% 0 mm 0 W/m2
21:10 10.9 °C 6.4 °C 1024.3 hPa WSW 1.6 km/h 3.2 km/h 74% 0 mm 0 W/m2
21:20 10.7 °C 6.4 °C 1024.3 hPa WSW 1.6 km/h 3.2 km/h 75% 0 mm 0 W/m2
21:30 10.4 °C 6.2 °C 1024.6 hPa West 1.6 km/h 3.2 km/h 75% 0 mm 0 W/m2
21:40 10.2 °C 6.3 °C 1024.6 hPa SSW 1.6 km/h 4.8 km/h 77% 0 mm 0 W/m2
21:50 9.9 °C 6.2 °C 1024.6 hPa South 1.6 km/h 4.8 km/h 78% 0 mm 0 W/m2
22:00 9.8 °C 6.3 °C 1024.6 hPa West 1.6 km/h 4.8 km/h 79% 0 mm 0 W/m2
22:10 9.5 °C 6.1 °C 1024.9 hPa Calm   4.8 km/h 79% 0 mm 0 W/m2
22:20 9.3 °C 6 °C 1024.9 hPa Calm   3.2 km/h 80% 0 mm 0 W/m2
22:30 9.1 °C 5.8 °C 1024.9 hPa Calm   3.2 km/h 80% 0 mm 0 W/m2
22:40 8.9 °C 5.8 °C 1024.9 hPa SW 1.6 km/h 3.2 km/h 81% 0 mm 0 W/m2
22:50 8.7 °C 5.6 °C 1024.9 hPa West 1.6 km/h 3.2 km/h 81% 0 mm 0 W/m2
23:00 8.5 °C 5.8 °C 1024.9 hPa NNW 3.2 km/h 4.8 km/h 83% 0 mm 0 W/m2
23:10 8.6 °C 5.8 °C 1024.9 hPa ENE 4.8 km/h 8 km/h 83% 0 mm 0 W/m2
23:20 8.3 °C 5.2 °C 1025.3 hPa NE 1.6 km/h 6.4 km/h 81% 0 mm 0 W/m2
23:30 8.1 °C 5.4 °C 1025.3 hPa WNW 1.6 km/h 3.2 km/h 83% 0 mm 0 W/m2
23:40 8 °C 5.4 °C 1025.3 hPa Calm   3.2 km/h 84% 0 mm 0 W/m2
23:50 7.8 °C 5.3 °C 1025.3 hPa WSW 1.6 km/h 3.2 km/h 84% 0 mm 0 W/m2
Knjazevac, Serbia
Compliments of Weather Underground - 2 mb